Time;durP1;ratioP1;P1;durP2;ratioP2;P2;SDS_P1;SDS_P2;PMS_P1;PMS_P2;Temp;Humidity;BMP_temperature;BMP_pressure;BME280_temperature;BME280_humidity;BME280_pressure;Samples;Min_cycle;Max_cycle;Signal;HPM_P1;HPM_P2
2023/12/05 00:00:23;;;;;;;41.95;22.27;;;0.20;88.90;;;;;;5004687;28;20026;-67
2023/12/05 00:02:48;;;;;;;42.60;21.88;;;0.30;89.10;;;;;;5007876;28;20029;-67
2023/12/05 00:05:14;;;;;;;41.90;22.10;;;0.30;88.90;;;;;;5009067;28;20037;-67
2023/12/05 00:07:39;;;;;;;41.42;21.60;;;0.30;89.10;;;;;;5008705;28;20041;-67
2023/12/05 00:10:05;;;;;;;40.95;19.75;;;0.30;89.10;;;;;;5007613;28;20046;-67
2023/12/05 00:12:31;;;;;;;38.90;20.60;;;0.30;89.30;;;;;;5006055;28;20037;-67
2023/12/05 00:14:56;;;;;;;41.17;20.42;;;0.30;89.40;;;;;;5008938;28;20033;-66
2023/12/05 00:17:22;;;;;;;40.03;20.33;;;0.40;89.80;;;;;;5009010;28;20137;-67
2023/12/05 00:19:47;;;;;;;38.25;20.35;;;0.40;90.00;;;;;;5008562;28;20103;-68
2023/12/05 00:22:14;;;;;;;40.05;19.73;;;0.40;90.10;;;;;;5008993;28;20072;-67
2023/12/05 00:24:39;;;;;;;42.33;20.08;;;0.40;90.10;;;;;;5007051;28;20022;-67
2023/12/05 00:27:05;;;;;;;56.97;24.20;;;0.50;90.20;;;;;;5008977;28;20038;-67
2023/12/05 00:29:31;;;;;;;58.92;27.17;;;0.50;90.20;;;;;;5008336;28;20030;-67
2023/12/05 00:31:56;;;;;;;43.10;22.15;;;0.60;90.20;;;;;;5006110;28;20056;-66
2023/12/05 00:34:22;;;;;;;38.17;19.67;;;0.60;90.20;;;;;;5008053;28;20037;-67
2023/12/05 00:36:48;;;;;;;35.50;18.20;;;0.70;90.20;;;;;;5006937;28;20556;-67
2023/12/05 00:39:14;;;;;;;34.45;18.20;;;0.70;90.20;;;;;;5007075;28;20037;-67
2023/12/05 00:41:40;;;;;;;32.95;17.25;;;0.70;90.30;;;;;;5007877;28;20045;-67
2023/12/05 00:44:05;;;;;;;31.27;17.02;;;0.80;90.20;;;;;;5007656;28;20041;-67
2023/12/05 00:46:31;;;;;;;34.15;18.38;;;0.80;90.30;;;;;;5007787;28;20022;-67
2023/12/05 00:48:57;;;;;;;34.25;17.77;;;0.80;90.30;;;;;;5007055;28;20034;-67
2023/12/05 00:51:22;;;;;;;34.15;17.98;;;0.90;90.30;;;;;;5007483;28;20092;-67
2023/12/05 00:53:48;;;;;;;34.97;18.65;;;0.90;90.30;;;;;;4997998;28;20030;-67
2023/12/05 00:56:14;;;;;;;33.92;17.85;;;1.00;90.40;;;;;;5007971;28;20034;-67
2023/12/05 00:58:40;;;;;;;35.88;18.50;;;1.00;90.30;;;;;;5006625;28;20034;-67
2023/12/05 01:01:06;;;;;;;35.10;17.60;;;1.00;90.30;;;;;;5007861;28;20072;-67
2023/12/05 01:03:32;;;;;;;31.70;17.10;;;1.10;90.40;;;;;;5007421;28;20034;-67
2023/12/05 01:05:58;;;;;;;31.33;16.70;;;1.10;90.40;;;;;;5006924;28;20513;-67
2023/12/05 01:08:23;;;;;;;32.33;17.63;;;1.10;90.40;;;;;;5006643;28;20172;-67
2023/12/05 01:10:49;;;;;;;32.88;17.00;;;1.10;90.40;;;;;;5005797;28;20123;-67
2023/12/05 01:13:14;;;;;;;32.92;17.10;;;1.20;90.40;;;;;;5006534;28;20049;-66
2023/12/05 01:15:40;;;;;;;35.42;18.50;;;1.20;90.40;;;;;;5006921;28;20034;-67
2023/12/05 01:18:05;;;;;;;31.65;17.08;;;1.20;90.30;;;;;;5006924;28;20156;-67
2023/12/05 01:20:31;;;;;;;31.10;17.08;;;1.30;90.40;;;;;;4989045;28;20040;-67
2023/12/05 01:22:57;;;;;;;31.50;17.27;;;1.30;90.40;;;;;;5006304;28;20160;-67
2023/12/05 01:25:22;;;;;;;35.00;17.88;;;1.30;90.40;;;;;;5006551;28;20038;-67
2023/12/05 01:27:48;;;;;;;32.67;17.65;;;1.30;90.50;;;;;;5005741;28;20108;-67
2023/12/05 01:30:14;;;;;;;29.08;16.20;;;1.40;90.50;;;;;;5005970;28;20041;-67
2023/12/05 01:32:39;;;;;;;30.17;16.20;;;1.40;90.50;;;;;;5005983;28;20508;-67
2023/12/05 01:35:05;;;;;;;26.27;15.02;;;1.40;90.50;;;;;;5006821;28;20795;-67
2023/12/05 01:37:31;;;;;;;28.73;16.25;;;1.50;91.00;;;;;;5005864;28;20698;-67
2023/12/05 01:39:56;;;;;;;29.27;15.50;;;1.50;90.70;;;;;;5006718;28;20504;-66
2023/12/05 01:42:22;;;;;;;30.33;16.48;;;1.50;90.70;;;;;;5005748;28;20030;-67
2023/12/05 01:44:48;;;;;;;29.30;15.60;;;1.60;90.70;;;;;;5005951;28;20038;-68
2023/12/05 01:47:16;;;;;;;30.92;16.33;;;1.60;90.70;;;;;;5006000;28;20172;-67
2023/12/05 01:49:42;;;;;;;30.40;16.10;;;1.60;90.70;;;;;;5006209;28;20083;-66
2023/12/05 01:52:08;;;;;;;29.35;16.50;;;1.70;90.70;;;;;;5006290;28;20029;-67
2023/12/05 01:54:34;;;;;;;30.10;16.42;;;1.70;90.70;;;;;;5005963;28;20305;-67
2023/12/05 01:57:01;;;;;;;31.85;16.58;;;1.80;90.70;;;;;;5006194;28;20030;-66
2023/12/05 01:59:27;;;;;;;27.08;15.82;;;1.80;90.70;;;;;;5005880;28;20053;-66
2023/12/05 02:01:54;;;;;;;29.85;16.30;;;1.80;90.60;;;;;;5009012;28;20061;-67
2023/12/05 02:04:19;;;;;;;29.90;16.63;;;1.90;90.60;;;;;;5000405;28;20026;-67
2023/12/05 02:06:49;;;;;;;29.70;16.38;;;1.90;90.60;;;;;;5005808;28;20030;-67
2023/12/05 02:09:20;;;;;;;30.55;16.55;;;1.90;90.70;;;;;;5005255;28;20354;-66
2023/12/05 02:11:46;;;;;;;29.83;16.15;;;1.90;90.70;;;;;;5005287;28;20034;-67
2023/12/05 02:14:12;;;;;;;30.83;16.45;;;1.90;90.60;;;;;;5006717;28;20037;-67
2023/12/05 02:16:51;;;;;;;29.75;16.85;;;2.00;90.60;;;;;;5005527;28;20489;-66
2023/12/05 02:19:22;;;;;;;29.67;15.90;;;2.00;90.70;;;;;;5005056;28;20034;-67
2023/12/05 02:21:53;;;;;;;30.38;16.00;;;2.00;90.60;;;;;;5006113;28;20045;-67
2023/12/05 02:24:56;;;;;;;26.35;14.93;;;2.00;90.60;;;;;;5004950;28;20135;-67
2023/12/05 02:27:30;;;;;;;28.40;15.23;;;2.10;90.70;;;;;;5004864;28;20030;-66
2023/12/05 02:29:56;;;;;;;26.02;14.48;;;2.10;90.60;;;;;;5004296;28;20029;-66
2023/12/05 02:32:22;;;;;;;26.83;14.90;;;2.10;90.50;;;;;;5005238;28;20560;-66
2023/12/05 02:34:48;;;;;;;26.52;14.05;;;2.10;90.60;;;;;;5005336;28;20470;-67
2023/12/05 02:37:40;;;;;;;24.75;13.88;;;2.10;90.60;;;;;;5004614;28;20030;-66
2023/12/05 02:40:10;;;;;;;27.17;15.13;;;2.20;90.70;;;;;;5004619;28;20354;-67
2023/12/05 02:42:38;;;;;;;24.15;14.05;;;2.20;90.50;;;;;;5005218;28;20062;-66
2023/12/05 02:45:06;;;;;;;24.52;13.80;;;2.20;90.60;;;;;;5005196;28;20042;-67
2023/12/05 02:47:33;;;;;;;26.33;15.20;;;2.20;90.60;;;;;;5005424;28;20029;-67
2023/12/05 02:49:59;;;;;;;26.65;14.57;;;2.20;90.70;;;;;;5005509;28;20037;-67
2023/12/05 02:52:24;;;;;;;24.10;13.18;;;2.30;90.70;;;;;;5005177;28;20034;-67
2023/12/05 02:54:50;;;;;;;23.85;13.65;;;2.20;90.60;;;;;;4988484;28;20041;-67
2023/12/05 02:57:16;;;;;;;24.98;13.50;;;2.30;90.60;;;;;;5006053;28;20038;-67
2023/12/05 02:59:41;;;;;;;23.98;13.10;;;2.30;90.60;;;;;;5006242;28;20169;-67
2023/12/05 03:02:07;;;;;;;22.98;12.82;;;2.30;90.50;;;;;;5005899;28;20038;-67
2023/12/05 03:04:32;;;;;;;24.45;12.77;;;2.30;90.50;;;;;;5004066;28;20397;-67
2023/12/05 03:06:58;;;;;;;22.92;12.45;;;2.30;90.90;;;;;;5004742;28;20040;-66
2023/12/05 03:09:23;;;;;;;23.13;13.10;;;2.30;90.50;;;;;;5005010;28;20166;-67
2023/12/05 03:11:49;;;;;;;22.73;12.05;;;2.30;90.50;;;;;;5005062;28;20037;-67
2023/12/05 03:14:15;;;;;;;23.58;12.55;;;2.30;90.60;;;;;;5006076;28;20033;-67
2023/12/05 03:16:42;;;;;;;23.08;12.82;;;2.30;90.60;;;;;;5004872;28;20065;-67
2023/12/05 03:19:08;;;;;;;22.65;12.23;;;2.30;90.60;;;;;;5005192;28;20041;-67
2023/12/05 03:21:33;;;;;;;20.70;12.30;;;2.30;90.60;;;;;;5004969;28;20038;-66
2023/12/05 03:23:59;;;;;;;18.77;10.93;;;2.40;90.60;;;;;;5004467;28;20581;-67
2023/12/05 03:26:24;;;;;;;20.75;11.95;;;2.40;90.50;;;;;;5004617;28;20045;-67
2023/12/05 03:28:51;;;;;;;20.27;11.95;;;2.40;90.30;;;;;;5004803;28;20136;-67
2023/12/05 03:31:17;;;;;;;20.30;11.50;;;2.30;90.20;;;;;;5003307;28;20034;-66
2023/12/05 03:33:43;;;;;;;20.00;11.35;;;2.40;90.20;;;;;;5004675;28;20041;-67
2023/12/05 03:36:10;;;;;;;23.00;12.38;;;2.40;90.00;;;;;;5006055;28;20042;-67
2023/12/05 03:38:40;;;;;;;21.88;11.82;;;2.40;89.80;;;;;;5008212;28;20405;-66
2023/12/05 03:41:07;;;;;;;19.88;11.82;;;2.30;89.60;;;;;;5008221;28;20045;-67
2023/12/05 03:43:33;;;;;;;19.02;11.43;;;2.30;89.40;;;;;;5009207;28;20034;-67
2023/12/05 03:45:58;;;;;;;22.10;11.98;;;2.30;89.40;;;;;;5009609;28;20350;-67
2023/12/05 03:48:24;;;;;;;22.00;11.85;;;2.20;89.20;;;;;;5008207;28;20103;-67
2023/12/05 03:50:49;;;;;;;20.15;11.75;;;2.20;89.30;;;;;;5008656;28;20033;-67
2023/12/05 03:53:18;;;;;;;20.13;11.60;;;2.20;89.10;;;;;;5008755;28;20038;-66
2023/12/05 03:55:43;;;;;;;24.08;12.65;;;2.20;89.00;;;;;;5008158;28;20044;-67
2023/12/05 03:58:09;;;;;;;26.15;13.32;;;2.20;89.10;;;;;;5007855;28;20065;-67
2023/12/05 04:00:34;;;;;;;24.17;12.93;;;2.20;89.30;;;;;;5007530;28;20485;-66
2023/12/05 04:03:01;;;;;;;23.08;12.80;;;2.20;89.60;;;;;;5008532;28;20041;-67
2023/12/05 04:05:26;;;;;;;26.00;13.80;;;2.20;89.80;;;;;;5007835;28;20031;-67
2023/12/05 04:07:52;;;;;;;23.20;13.35;;;2.20;90.00;;;;;;5007587;28;20525;-67
2023/12/05 04:10:17;;;;;;;24.70;13.57;;;2.20;90.10;;;;;;4995490;28;20084;-67
2023/12/05 04:12:43;;;;;;;23.55;13.18;;;2.20;90.20;;;;;;5006179;28;22478;-67
2023/12/05 04:15:09;;;;;;;25.25;13.95;;;2.20;90.20;;;;;;5008376;28;20048;-67
2023/12/05 04:17:34;;;;;;;27.35;14.02;;;2.20;90.20;;;;;;5008245;28;20075;-67
2023/12/05 04:20:00;;;;;;;22.73;13.10;;;2.20;90.20;;;;;;5007938;28;20042;-67
2023/12/05 04:22:26;;;;;;;28.73;14.98;;;2.30;90.30;;;;;;5008139;28;20420;-67
2023/12/05 04:24:52;;;;;;;26.33;14.43;;;2.30;90.20;;;;;;5007986;28;20041;-67
2023/12/05 04:27:18;;;;;;;26.67;14.35;;;2.30;90.30;;;;;;5007713;28;20120;-67
2023/12/05 04:29:44;;;;;;;27.38;14.75;;;2.40;90.40;;;;;;5008134;28;20045;-67
2023/12/05 04:32:10;;;;;;;26.17;15.18;;;2.40;90.40;;;;;;4981809;28;20500;-67
2023/12/05 04:34:36;;;;;;;29.83;15.25;;;2.40;90.40;;;;;;5007081;28;20058;-67
2023/12/05 04:37:01;;;;;;;28.17;15.32;;;2.40;90.50;;;;;;5006989;28;20065;-67
2023/12/05 04:39:27;;;;;;;26.98;15.07;;;2.40;90.50;;;;;;5006705;28;20030;-66
2023/12/05 04:41:53;;;;;;;27.73;15.13;;;2.40;90.50;;;;;;4990917;28;20562;-67
2023/12/05 04:44:18;;;;;;;28.98;15.32;;;2.40;90.50;;;;;;4990777;28;20034;-67
2023/12/05 04:46:44;;;;;;;26.67;14.50;;;2.50;90.50;;;;;;5007688;28;20141;-66
2023/12/05 04:49:09;;;;;;;31.08;15.13;;;2.50;90.50;;;;;;5006659;28;20034;-67
2023/12/05 04:51:35;;;;;;;26.65;14.90;;;2.60;90.50;;;;;;5007776;28;20037;-66
2023/12/05 04:54:01;;;;;;;28.17;14.25;;;2.60;90.40;;;;;;4990292;28;20183;-66
2023/12/05 04:56:27;;;;;;;27.63;14.55;;;2.60;90.40;;;;;;5006203;28;20064;-67
2023/12/05 04:58:53;;;;;;;28.50;14.85;;;2.60;90.40;;;;;;5005758;28;21009;-67
2023/12/05 05:01:18;;;;;;;29.60;14.15;;;2.60;90.40;;;;;;5007982;28;20133;-67
2023/12/05 05:03:44;;;;;;;24.88;13.75;;;2.60;90.50;;;;;;5006531;28;20038;-67
2023/12/05 05:06:10;;;;;;;26.40;13.98;;;2.60;90.50;;;;;;5007284;28;20113;-67
2023/12/05 05:08:36;;;;;;;24.00;13.18;;;2.70;90.50;;;;;;5005987;28;20041;-67
2023/12/05 05:11:01;;;;;;;27.40;13.00;;;2.70;90.50;;;;;;5006044;28;20056;-67
2023/12/05 05:13:27;;;;;;;25.08;13.55;;;2.70;90.50;;;;;;5006520;28;20065;-67
2023/12/05 05:15:52;;;;;;;23.45;12.75;;;2.70;90.50;;;;;;5005864;28;20037;-67
2023/12/05 05:18:18;;;;;;;25.95;13.50;;;2.80;90.50;;;;;;5006601;28;20573;-67
2023/12/05 05:20:44;;;;;;;24.38;12.35;;;2.80;90.50;;;;;;5006199;28;20069;-67
2023/12/05 05:23:09;;;;;;;21.25;11.38;;;2.80;90.50;;;;;;5007733;28;20692;-67
2023/12/05 05:25:35;;;;;;;19.40;10.93;;;2.80;90.50;;;;;;5007568;28;20022;-66
2023/12/05 05:28:03;;;;;;;23.40;11.70;;;2.80;90.60;;;;;;5007370;28;20026;-67
2023/12/05 05:30:29;;;;;;;20.65;11.55;;;2.90;90.70;;;;;;5006510;28;20053;-66
2023/12/05 05:32:54;;;;;;;24.98;12.43;;;2.90;90.70;;;;;;5007202;28;20549;-66
2023/12/05 05:35:20;;;;;;;21.60;11.48;;;3.00;90.80;;;;;;4989523;28;20107;-67
2023/12/05 05:37:45;;;;;;;20.95;11.48;;;3.00;90.80;;;;;;5007266;28;20062;-66
2023/12/05 05:40:11;;;;;;;26.40;12.18;;;3.00;90.80;;;;;;5007423;28;20038;-67
2023/12/05 05:42:37;;;;;;;22.67;12.52;;;3.00;90.70;;;;;;5006909;28;20349;-66
2023/12/05 05:45:03;;;;;;;22.10;12.70;;;3.10;90.70;;;;;;5007646;28;20208;-66
2023/12/05 05:47:31;;;;;;;23.23;13.00;;;3.10;90.70;;;;;;5007088;28;20516;-67
2023/12/05 05:49:57;;;;;;;25.67;13.88;;;3.10;90.70;;;;;;5007038;28;20026;-66
2023/12/05 05:52:23;;;;;;;28.40;13.65;;;3.10;90.50;;;;;;5007591;28;20063;-66
2023/12/05 05:54:52;;;;;;;22.95;13.23;;;3.10;90.50;;;;;;5006232;28;20038;-67
2023/12/05 05:57:17;;;;;;;25.85;13.23;;;3.10;90.40;;;;;;5006841;28;20037;-65
2023/12/05 05:59:43;;;;;;;22.67;12.68;;;3.10;90.30;;;;;;5006673;28;20080;-66
2023/12/05 06:02:12;;;;;;;22.88;12.73;;;3.10;90.30;;;;;;5006706;28;20521;-66
2023/12/05 06:04:41;;;;;;;21.52;11.57;;;3.10;90.30;;;;;;5006257;28;20644;-66
2023/12/05 06:07:07;;;;;;;20.42;11.55;;;3.10;90.40;;;;;;4998608;28;20046;-66
2023/12/05 06:09:33;;;;;;;20.85;11.75;;;3.10;90.40;;;;;;5006357;28;20048;-67
2023/12/05 06:11:59;;;;;;;20.60;11.88;;;3.10;90.50;;;;;;5003934;28;20034;-66
2023/12/05 06:14:24;;;;;;;22.52;11.50;;;3.10;90.50;;;;;;5006388;28;20200;-66
2023/12/05 06:16:50;;;;;;;21.48;11.80;;;3.10;90.50;;;;;;5006522;28;20092;-66
2023/12/05 06:19:16;;;;;;;18.80;10.85;;;3.10;90.50;;;;;;5006116;28;20532;-66
2023/12/05 06:21:42;;;;;;;18.63;10.35;;;3.10;90.60;;;;;;5006594;28;20138;-65
2023/12/05 06:24:10;;;;;;;16.52;9.63;;;3.10;90.70;;;;;;5006238;28;20124;-67
2023/12/05 06:26:36;;;;;;;16.42;9.05;;;3.20;90.80;;;;;;5005702;28;20026;-66
2023/12/05 06:29:04;;;;;;;18.10;9.77;;;3.20;90.80;;;;;;5005987;28;20045;-66
2023/12/05 06:31:30;;;;;;;20.38;11.13;;;3.20;90.80;;;;;;5005712;28;20045;-66
2023/12/05 06:33:55;;;;;;;22.83;11.70;;;3.30;90.70;;;;;;5005940;28;20048;-66
2023/12/05 06:36:21;;;;;;;18.50;11.48;;;3.20;90.60;;;;;;5006404;28;20061;-66
2023/12/05 06:38:47;;;;;;;21.02;10.93;;;3.30;90.60;;;;;;5004594;28;20524;-67
2023/12/05 06:41:12;;;;;;;18.88;10.85;;;3.30;90.50;;;;;;5006601;28;20053;-66
2023/12/05 06:43:38;;;;;;;19.60;11.63;;;3.30;90.50;;;;;;5005730;28;20050;-66
2023/12/05 06:46:03;;;;;;;19.65;10.85;;;3.30;90.50;;;;;;5005489;28;20073;-66
2023/12/05 06:48:29;;;;;;;20.48;11.23;;;3.20;90.50;;;;;;5005721;28;20084;-67
2023/12/05 06:50:55;;;;;;;19.38;10.55;;;3.20;90.50;;;;;;5005431;28;20033;-66
2023/12/05 06:53:20;;;;;;;19.00;10.90;;;3.20;90.60;;;;;;5006567;28;20077;-66
2023/12/05 06:55:49;;;;;;;17.90;10.73;;;3.20;90.70;;;;;;5006436;28;20054;-66
2023/12/05 06:58:14;;;;;;;19.05;10.60;;;3.20;90.70;;;;;;5005809;28;20037;-66
2023/12/05 07:00:40;;;;;;;21.02;11.35;;;3.20;90.70;;;;;;5005439;28;20117;-66
2023/12/05 07:03:05;;;;;;;19.85;11.15;;;3.20;90.70;;;;;;5006137;28;20052;-66
2023/12/05 07:05:31;;;;;;;18.13;11.07;;;3.20;90.80;;;;;;5006473;28;20026;-66
2023/12/05 07:07:56;;;;;;;23.88;12.60;;;3.20;90.80;;;;;;5005396;28;20410;-65
2023/12/05 07:10:23;;;;;;;21.73;11.18;;;3.20;90.80;;;;;;5006495;28;20168;-66
2023/12/05 07:12:48;;;;;;;23.75;12.30;;;3.20;90.90;;;;;;5004623;28;20501;-66
2023/12/05 07:15:14;;;;;;;23.02;11.93;;;3.20;90.90;;;;;;5006205;28;20046;-66
2023/12/05 07:17:40;;;;;;;20.02;11.77;;;3.20;90.90;;;;;;5006190;28;20038;-67
2023/12/05 07:20:06;;;;;;;21.58;11.70;;;3.20;90.90;;;;;;5005752;28;20042;-67
2023/12/05 07:22:33;;;;;;;19.13;11.65;;;3.20;91.00;;;;;;5005618;28;20034;-67
2023/12/05 07:24:59;;;;;;;20.50;11.68;;;3.20;91.10;;;;;;5003818;28;20049;-66
2023/12/05 07:27:24;;;;;;;21.25;11.85;;;3.30;91.10;;;;;;4996061;28;20458;-66
2023/12/05 07:29:50;;;;;;;21.38;12.02;;;3.30;91.10;;;;;;5005520;28;20370;-66
2023/12/05 07:32:15;;;;;;;21.95;12.88;;;3.30;91.10;;;;;;4989602;28;20382;-66
2023/12/05 07:34:42;;;;;;;23.00;13.43;;;3.30;91.10;;;;;;5004218;28;20026;-66
2023/12/05 07:37:08;;;;;;;21.48;12.05;;;3.30;91.20;;;;;;5005098;28;20397;-66
2023/12/05 07:39:34;;;;;;;22.85;11.98;;;3.30;91.20;;;;;;4988068;28;20033;-66
2023/12/05 07:42:00;;;;;;;22.70;12.55;;;3.40;91.20;;;;;;4987551;28;20053;-67
2023/12/05 07:44:25;;;;;;;25.40;13.75;;;3.40;91.20;;;;;;5004831;28;20092;-66
2023/12/05 07:46:51;;;;;;;23.02;13.02;;;3.40;91.20;;;;;;5005527;28;20181;-67
2023/12/05 07:49:16;;;;;;;20.75;12.25;;;3.40;91.10;;;;;;5004705;28;20494;-66
2023/12/05 07:51:42;;;;;;;19.52;11.48;;;3.40;91.00;;;;;;5005555;28;20053;-67
2023/12/05 07:54:08;;;;;;;21.15;11.32;;;3.40;90.90;;;;;;5005050;28;20030;-66
2023/12/05 07:56:33;;;;;;;20.58;11.85;;;3.30;90.80;;;;;;5004539;28;20120;-66
2023/12/05 07:58:59;;;;;;;19.52;11.27;;;3.30;90.80;;;;;;5004519;28;20169;-67
2023/12/05 08:01:25;;;;;;;27.42;16.65;;;3.30;90.80;;;;;;5005452;28;20042;-66
2023/12/05 08:03:50;;;;;;;55.72;37.50;;;3.30;90.80;;;;;;5005019;28;20037;-66
2023/12/05 08:06:16;;;;;;;32.20;20.73;;;3.30;90.70;;;;;;5005910;28;20521;-67
2023/12/05 08:08:41;;;;;;;26.75;16.42;;;3.30;90.70;;;;;;5004272;28;20131;-66
2023/12/05 08:11:09;;;;;;;26.23;15.75;;;3.30;90.70;;;;;;5005071;28;20044;-67
2023/12/05 08:13:36;;;;;;;26.17;15.90;;;3.30;90.80;;;;;;5005149;28;20145;-67
2023/12/05 08:16:01;;;;;;;24.52;12.90;;;3.30;90.80;;;;;;5005106;28;20050;-67
2023/12/05 08:18:27;;;;;;;21.95;13.60;;;3.30;90.80;;;;;;5004776;28;20037;-67
2023/12/05 08:20:52;;;;;;;27.42;12.73;;;3.30;90.90;;;;;;5005098;28;20042;-66
2023/12/05 08:23:20;;;;;;;19.33;11.70;;;3.30;90.90;;;;;;5006446;28;20117;-67
2023/12/05 08:25:45;;;;;;;20.40;11.63;;;3.30;90.90;;;;;;5008590;28;20070;-67
2023/12/05 08:28:11;;;;;;;20.65;10.93;;;3.30;91.20;;;;;;5008585;28;20196;-67
2023/12/05 08:30:37;;;;;;;16.50;10.30;;;3.40;90.80;;;;;;5007129;28;20053;-66
2023/12/05 08:33:05;;;;;;;19.60;11.13;;;3.40;90.80;;;;;;5008260;28;20081;-67
2023/12/05 08:35:33;;;;;;;17.10;10.20;;;3.40;90.70;;;;;;5008812;28;20833;-67
2023/12/05 08:37:59;;;;;;;17.23;10.48;;;3.40;90.70;;;;;;5008437;28;20018;-67
2023/12/05 08:40:25;;;;;;;17.33;10.48;;;3.40;90.50;;;;;;5007969;28;20604;-67
2023/12/05 08:42:50;;;;;;;15.57;9.23;;;3.40;90.60;;;;;;5008705;28;20109;-66
2023/12/05 08:45:16;;;;;;;16.67;9.70;;;3.50;90.60;;;;;;5008878;28;20041;-67
2023/12/05 08:47:41;;;;;;;17.80;9.75;;;3.50;90.50;;;;;;4990810;28;20045;-67
2023/12/05 08:50:07;;;;;;;13.48;8.85;;;3.50;90.80;;;;;;5008157;28;20044;-66
2023/12/05 08:52:34;;;;;;;21.35;11.40;;;3.50;90.40;;;;;;4989998;28;20046;-67
2023/12/05 08:55:00;;;;;;;22.30;11.38;;;3.50;90.40;;;;;;5008166;28;20034;-66
2023/12/05 08:57:26;;;;;;;26.77;13.65;;;3.50;90.30;;;;;;5008274;28;20038;-66
2023/12/05 08:59:53;;;;;;;26.83;14.15;;;3.60;90.30;;;;;;5007554;28;20049;-67
2023/12/05 09:02:21;;;;;;;27.63;15.90;;;3.60;90.20;;;;;;5006604;28;20034;-67
2023/12/05 09:04:47;;;;;;;27.40;15.57;;;3.60;90.30;;;;;;5008871;28;20050;-66
2023/12/05 09:07:13;;;;;;;27.17;15.02;;;3.60;90.30;;;;;;5009327;28;20298;-66
2023/12/05 09:09:41;;;;;;;28.25;14.90;;;3.60;90.30;;;;;;5008860;28;20095;-66
2023/12/05 09:12:07;;;;;;;20.48;12.10;;;3.60;90.20;;;;;;5006280;28;20049;-67
2023/12/05 09:14:34;;;;;;;19.85;10.55;;;3.60;90.20;;;;;;5009115;28;20509;-67
2023/12/05 09:17:01;;;;;;;13.63;8.75;;;3.60;90.30;;;;;;5009314;28;20109;-67
2023/12/05 09:19:26;;;;;;;13.10;8.73;;;3.60;90.40;;;;;;5008698;28;20037;-67
2023/12/05 09:21:52;;;;;;;17.45;10.30;;;3.60;90.60;;;;;;5008927;28;20104;-68
2023/12/05 09:24:18;;;;;;;16.88;9.70;;;3.70;90.80;;;;;;5008795;28;20040;-67
2023/12/05 09:26:43;;;;;;;15.15;8.82;;;3.70;90.90;;;;;;5008052;28;20053;-67
2023/12/05 09:29:09;;;;;;;17.58;8.90;;;3.70;91.00;;;;;;5009128;28;20034;-67
2023/12/05 09:31:35;;;;;;;13.95;8.77;;;3.70;91.10;;;;;;5007281;28;20490;-66
2023/12/05 09:34:02;;;;;;;14.55;8.77;;;3.80;91.10;;;;;;4991256;28;20034;-67
2023/12/05 09:36:31;;;;;;;15.20;8.48;;;3.80;91.10;;;;;;5008349;28;20030;-68
2023/12/05 09:38:56;;;;;;;16.33;8.82;;;3.90;91.20;;;;;;5008126;28;20402;-68
2023/12/05 09:41:23;;;;;;;13.40;8.02;;;3.90;91.20;;;;;;5009149;28;20343;-68
2023/12/05 09:43:52;;;;;;;18.05;8.57;;;4.00;91.30;;;;;;5008700;28;20038;-68
2023/12/05 09:46:21;;;;;;;11.60;7.55;;;4.00;91.30;;;;;;5008862;28;20034;-69
2023/12/05 09:48:48;;;;;;;12.63;7.55;;;4.10;91.30;;;;;;4982851;28;20034;-68
2023/12/05 09:51:17;;;;;;;12.48;7.55;;;4.20;91.20;;;;;;4990645;28;20038;-68
2023/12/05 09:53:48;;;;;;;12.85;7.35;;;4.20;91.20;;;;;;5008387;28;20061;-68
2023/12/05 09:56:14;;;;;;;12.50;7.18;;;4.30;91.30;;;;;;5008844;28;20042;-68
2023/12/05 09:58:44;;;;;;;13.82;8.50;;;4.30;91.20;;;;;;4982753;28;20071;-68
2023/12/05 10:01:17;;;;;;;13.70;7.50;;;4.30;91.30;;;;;;5008618;28;20064;-69
2023/12/05 10:03:54;;;;;;;13.70;8.15;;;4.40;91.30;;;;;;5008019;28;20258;-69
2023/12/05 10:06:20;;;;;;;14.88;8.20;;;4.40;91.30;;;;;;5008567;28;20042;-69
2023/12/05 10:08:49;;;;;;;13.02;7.93;;;4.50;91.20;;;;;;5007044;28;20030;-69
2023/12/05 10:11:17;;;;;;;18.27;8.82;;;4.50;91.50;;;;;;5007491;28;20254;-69
2023/12/05 10:13:47;;;;;;;15.88;9.65;;;4.60;91.10;;;;;;5002953;28;20034;-68
2023/12/05 10:16:14;;;;;;;18.10;10.15;;;4.60;91.10;;;;;;5005737;28;20046;-68
2023/12/05 10:18:40;;;;;;;27.23;10.80;;;4.70;91.10;;;;;;5007584;28;20449;-68
2023/12/05 10:21:06;;;;;;;21.20;11.35;;;4.70;91.00;;;;;;5008368;28;20049;-68
2023/12/05 10:23:32;;;;;;;18.63;10.95;;;4.70;90.90;;;;;;5008341;28;20414;-68
2023/12/05 10:25:58;;;;;;;18.30;10.13;;;4.70;90.90;;;;;;4990424;28;20068;-68
2023/12/05 10:28:23;;;;;;;17.25;10.25;;;4.80;90.90;;;;;;5007606;28;20054;-67
2023/12/05 10:30:49;;;;;;;16.42;9.43;;;4.80;90.80;;;;;;5005945;28;20561;-67
2023/12/05 10:33:17;;;;;;;15.32;9.18;;;4.80;90.70;;;;;;5007561;28;20054;-66
2023/12/05 10:35:45;;;;;;;18.48;9.48;;;4.80;90.80;;;;;;5007850;28;20125;-66
2023/12/05 10:38:14;;;;;;;16.52;9.25;;;4.80;90.90;;;;;;5007635;28;20097;-66
2023/12/05 10:40:59;;;;;;;15.73;9.32;;;4.80;90.90;;;;;;5006898;28;20589;-66
2023/12/05 10:43:27;;;;;;;17.90;9.25;;;4.90;91.10;;;;;;5007440;28;20034;-65
2023/12/05 10:45:54;;;;;;;15.80;9.18;;;4.90;91.00;;;;;;5006753;28;20085;-65
2023/12/05 10:48:20;;;;;;;16.30;9.43;;;4.90;90.90;;;;;;5006600;28;20088;-65
2023/12/05 10:50:47;;;;;;;16.25;9.60;;;5.00;90.90;;;;;;5006467;28;20057;-65
2023/12/05 10:53:17;;;;;;;16.10;8.75;;;5.00;91.00;;;;;;5007789;28;20025;-65
2023/12/05 10:55:43;;;;;;;14.35;7.88;;;5.00;91.00;;;;;;5007630;28;20034;-65
2023/12/05 10:58:09;;;;;;;12.95;7.50;;;5.10;91.00;;;;;;5007571;28;20065;-65
2023/12/05 11:00:39;;;;;;;12.88;7.93;;;5.10;90.90;;;;;;4997241;28;20038;-65
2023/12/05 11:03:05;;;;;;;13.80;7.57;;;5.20;90.90;;;;;;4998053;28;20081;-66
2023/12/05 11:05:32;;;;;;;10.80;6.82;;;5.20;90.90;;;;;;5007596;28;20494;-67
2023/12/05 11:07:58;;;;;;;12.70;7.43;;;5.20;90.80;;;;;;4989431;28;20055;-66
2023/12/05 11:10:29;;;;;;;12.15;7.70;;;5.30;90.80;;;;;;5004439;28;20054;-66
2023/12/05 11:12:58;;;;;;;15.85;8.70;;;5.30;90.80;;;;;;5006021;28;20060;-66
2023/12/05 11:15:48;;;;;;;13.20;7.40;;;5.30;90.70;;;;;;5007454;28;20037;-66
2023/12/05 11:18:42;;;;;;;10.25;6.60;;;5.40;90.90;;;;;;5006959;28;20037;-66
2023/12/05 11:21:25;;;;;;;10.02;6.32;;;5.40;91.00;;;;;;5006767;28;20112;-66
2023/12/05 11:24:21;;;;;;;8.63;5.82;;;5.50;91.10;;;;;;5006684;28;20525;-66
2023/12/05 11:26:56;;;;;;;11.40;6.43;;;5.50;91.40;;;;;;5006121;28;20049;-65
2023/12/05 11:30:10;;;;;;;9.85;6.13;;;5.60;90.90;;;;;;5007002;28;20065;-65
2023/12/05 11:32:51;;;;;;;9.45;5.95;;;5.70;90.80;;;;;;4911545;28;20487;-65
2023/12/05 11:35:42;;;;;;;8.43;5.78;;;5.70;90.60;;;;;;5006514;28;20042;-65
2023/12/05 11:38:12;;;;;;;10.18;5.95;;;5.70;90.50;;;;;;5007238;28;20034;-65
2023/12/05 11:40:38;;;;;;;8.65;5.57;;;5.70;90.50;;;;;;5006299;28;20034;-65
2023/12/05 11:43:04;;;;;;;8.07;5.70;;;5.70;90.50;;;;;;5007541;28;20053;-64
2023/12/05 11:45:30;;;;;;;9.13;5.57;;;5.70;90.50;;;;;;4999070;28;20065;-65
2023/12/05 11:47:58;;;;;;;7.60;5.55;;;5.70;90.50;;;;;;5006614;28;20037;-66
2023/12/05 11:50:24;;;;;;;8.20;5.85;;;5.70;90.50;;;;;;5005979;28;20038;-66
2023/12/05 11:52:49;;;;;;;8.05;5.68;;;5.70;90.60;;;;;;5006976;28;20037;-65
2023/12/05 11:55:15;;;;;;;8.07;5.95;;;5.80;90.70;;;;;;5006952;28;20045;-66
2023/12/05 11:57:41;;;;;;;11.35;5.90;;;5.80;90.70;;;;;;5008363;28;20034;-66
2023/12/05 12:00:09;;;;;;;10.35;5.85;;;5.80;90.70;;;;;;5010540;28;20049;-66
2023/12/05 12:02:38;;;;;;;8.73;5.70;;;5.90;90.70;;;;;;5010057;28;20030;-67
2023/12/05 12:05:09;;;;;;;7.93;5.60;;;6.00;90.90;;;;;;5010648;28;20034;-67
2023/12/05 12:07:52;;;;;;;9.38;5.97;;;6.00;90.40;;;;;;5010605;28;20457;-67
2023/12/05 12:10:19;;;;;;;12.48;7.55;;;6.00;90.30;;;;;;5008640;28;20092;-67
2023/12/05 12:12:47;;;;;;;11.35;7.53;;;6.00;90.30;;;;;;5008780;28;20060;-68
2023/12/05 12:15:19;;;;;;;8.27;5.65;;;6.00;90.20;;;;;;5010365;28;20041;-67
2023/12/05 12:17:44;;;;;;;9.55;6.03;;;6.00;90.20;;;;;;5010288;28;20031;-67
2023/12/05 12:20:15;;;;;;;8.63;6.00;;;6.00;90.20;;;;;;5010416;28;20342;-67
2023/12/05 12:22:44;;;;;;;9.35;6.50;;;6.00;90.10;;;;;;5009814;28;20072;-67
2023/12/05 12:25:14;;;;;;;9.88;5.90;;;6.00;90.00;;;;;;5010165;28;20084;-68
2023/12/05 12:27:43;;;;;;;8.15;5.72;;;6.00;90.00;;;;;;5008459;28;20045;-67
2023/12/05 12:30:13;;;;;;;8.85;5.90;;;5.90;90.00;;;;;;5010397;28;20026;-67
2023/12/05 12:33:01;;;;;;;9.48;5.80;;;5.90;89.90;;;;;;5008034;28;20041;-67
2023/12/05 12:35:29;;;;;;;10.23;5.95;;;5.90;89.90;;;;;;5010198;28;20383;-67
2023/12/05 12:37:56;;;;;;;9.02;6.00;;;5.80;89.80;;;;;;5009696;28;20497;-67
2023/12/05 12:40:22;;;;;;;7.43;6.05;;;5.80;89.90;;;;;;5009685;28;20505;-67